createdAt,value
2022-09-15T00:01:33.844Z,41.92
2022-09-15T00:04:03.204Z,38.55
2022-09-15T00:06:31.701Z,40.10
2022-09-15T00:09:00.437Z,41.35
2022-09-15T00:11:30.977Z,38.58
2022-09-15T00:14:01.738Z,45.45
2022-09-15T00:16:33.046Z,42.95
2022-09-15T00:19:02.101Z,38.45
2022-09-15T00:21:33.141Z,40.80
2022-09-15T00:24:02.832Z,41.88
2022-09-15T00:26:32.718Z,38.67
2022-09-15T00:29:01.785Z,40.97
2022-09-15T00:31:33.238Z,44.20
2022-09-15T00:34:03.799Z,37.75
2022-09-15T00:36:32.969Z,39.38
2022-09-15T00:39:01.468Z,42.00
2022-09-15T00:41:30.241Z,40.95
2022-09-15T00:44:00.690Z,35.95
2022-09-15T00:46:32.397Z,39.60
2022-09-15T00:49:09.209Z,41.50
2022-09-15T00:51:44.065Z,36.20
2022-09-15T00:54:16.460Z,36.60
2022-09-15T00:56:46.341Z,39.97
2022-09-15T00:59:18.110Z,37.13
2022-09-15T01:01:50.757Z,38.85
2022-09-15T01:04:19.481Z,35.65
2022-09-15T01:06:53.181Z,36.65
2022-09-15T01:09:25.868Z,38.22
2022-09-15T01:11:54.421Z,36.67
2022-09-15T01:14:23.010Z,32.67
2022-09-15T01:17:03.880Z,34.05
2022-09-15T01:20:05.410Z,34.38
2022-09-15T01:22:38.426Z,37.15
2022-09-15T01:25:10.562Z,38.40
2022-09-15T01:28:06.146Z,32.60
2022-09-15T01:30:38.305Z,36.45
2022-09-15T01:33:17.953Z,37.78
2022-09-15T01:35:53.841Z,35.67
2022-09-15T01:38:32.968Z,35.90
2022-09-15T01:41:06.860Z,35.30
2022-09-15T01:43:48.750Z,39.90
2022-09-15T01:46:19.916Z,37.85
2022-09-15T01:48:50.318Z,39.03
2022-09-15T01:51:19.619Z,42.03
2022-09-15T01:53:49.625Z,36.17
2022-09-15T01:56:18.213Z,36.65
2022-09-15T01:58:46.741Z,34.47
2022-09-15T02:01:20.163Z,32.67
2022-09-15T02:03:54.791Z,39.10
2022-09-15T02:06:35.962Z,35.22
2022-09-15T02:09:12.618Z,40.60
2022-09-15T02:11:52.169Z,36.28
2022-09-15T02:14:31.298Z,36.03
2022-09-15T02:17:01.579Z,36.65
2022-09-15T02:19:33.430Z,43.40
2022-09-15T02:22:07.713Z,31.73
2022-09-15T02:24:40.933Z,37.25
2022-09-15T02:27:13.943Z,35.88
2022-09-15T02:29:45.736Z,37.63
2022-09-15T02:32:18.379Z,33.83
2022-09-15T02:34:51.427Z,37.00
2022-09-15T02:37:21.938Z,37.65
2022-09-15T02:39:54.623Z,39.88
2022-09-15T02:42:27.489Z,37.58
2022-09-15T02:44:56.624Z,35.58
2022-09-15T02:47:28.164Z,35.88
2022-09-15T02:49:57.144Z,32.55
2022-09-15T02:52:26.105Z,31.42
2022-09-15T02:54:54.551Z,33.10
2022-09-15T02:57:24.109Z,33.92
2022-09-15T03:00:10.183Z,30.15
2022-09-15T03:02:40.279Z,32.20
2022-09-15T03:05:10.374Z,32.28
2022-09-15T03:07:39.048Z,35.08
2022-09-15T03:10:09.257Z,34.10
2022-09-15T03:12:41.604Z,34.20
2022-09-15T03:15:11.704Z,33.00
2022-09-15T03:17:43.264Z,33.67
2022-09-15T03:20:14.884Z,34.17
2022-09-15T03:22:43.866Z,32.38
2022-09-15T03:25:13.362Z,42.63
2022-09-15T03:27:42.387Z,33.95
2022-09-15T03:30:12.834Z,35.85
2022-09-15T03:32:42.995Z,35.10
2022-09-15T03:35:11.686Z,34.35
2022-09-15T03:37:40.217Z,35.97
2022-09-15T03:40:10.408Z,31.05
2022-09-15T03:42:38.946Z,31.58
2022-09-15T03:45:08.443Z,33.67
2022-09-15T03:47:36.909Z,32.58
2022-09-15T03:50:07.757Z,30.80
2022-09-15T03:52:36.235Z,31.92
2022-09-15T03:55:04.965Z,31.67
2022-09-15T03:57:33.396Z,31.77
2022-09-15T04:00:01.865Z,29.05
2022-09-15T04:02:32.906Z,30.08
2022-09-15T04:05:02.684Z,32.40
2022-09-15T04:07:32.544Z,29.48
2022-09-15T04:10:00.981Z,26.02
2022-09-15T04:12:32.269Z,29.55
2022-09-15T04:15:01.110Z,34.28
2022-09-15T04:17:29.797Z,32.38
2022-09-15T04:19:58.626Z,28.02
2022-09-15T04:22:27.593Z,28.35
2022-09-15T04:24:57.463Z,31.73
2022-09-15T04:27:25.967Z,28.05
2022-09-15T04:29:54.435Z,26.80
2022-09-15T04:32:22.898Z,26.85
2022-09-15T04:34:51.357Z,27.58
2022-09-15T04:37:19.826Z,31.13
2022-09-15T04:39:49.147Z,29.15
2022-09-15T04:42:20.928Z,28.50
2022-09-15T04:44:49.398Z,26.33
2022-09-15T04:47:18.377Z,28.60
2022-09-15T04:49:47.013Z,27.50
2022-09-15T04:52:15.518Z,29.25
2022-09-15T04:54:44.005Z,28.10
2022-09-15T04:57:12.540Z,29.35
2022-09-15T04:59:42.377Z,26.58
2022-09-15T05:02:10.918Z,24.63
2022-09-15T05:04:39.432Z,28.10
2022-09-15T05:07:07.841Z,24.65
2022-09-15T05:09:36.417Z,25.85
2022-09-15T05:12:05.150Z,26.23
2022-09-15T05:14:33.605Z,30.17
2022-09-15T05:17:03.445Z,25.17
2022-09-15T05:19:32.030Z,25.17
2022-09-15T05:22:01.103Z,26.10
2022-09-15T05:24:29.554Z,24.70
2022-09-15T05:26:58.068Z,26.58
2022-09-15T05:29:27.016Z,25.00
2022-09-15T05:31:55.584Z,26.85
2022-09-15T05:34:25.471Z,25.15
2022-09-15T05:36:53.941Z,22.35
2022-09-15T05:39:22.374Z,24.40
2022-09-15T05:41:50.832Z,23.73
2022-09-15T05:44:21.337Z,23.52
2022-09-15T05:46:50.312Z,23.40
2022-09-15T05:49:18.818Z,24.60
2022-09-15T05:51:48.638Z,24.23
2022-09-15T05:54:17.078Z,25.25
2022-09-15T05:56:45.623Z,27.38
2022-09-15T05:59:14.313Z,24.42
2022-09-15T06:01:42.947Z,26.67
2022-09-15T06:04:12.276Z,24.42
2022-09-15T06:06:40.722Z,25.67
2022-09-15T06:09:10.585Z,31.38
2022-09-15T06:11:39.059Z,32.92
2022-09-15T06:14:07.652Z,32.50
2022-09-15T06:16:36.904Z,27.63
2022-09-15T06:19:05.736Z,26.80
2022-09-15T06:21:34.466Z,29.75
2022-09-15T06:24:06.878Z,28.70
2022-09-15T06:26:36.787Z,35.38
2022-09-15T06:29:06.785Z,31.40
2022-09-15T06:31:35.693Z,29.02
2022-09-15T06:34:05.323Z,28.65
2022-09-15T06:36:34.423Z,29.30
2022-09-15T06:39:03.034Z,30.95
2022-09-15T06:41:47.390Z,28.75
2022-09-15T06:44:21.783Z,31.85
2022-09-15T06:46:50.482Z,29.50
2022-09-15T06:49:19.145Z,28.63
2022-09-15T06:51:47.672Z,31.70
2022-09-15T06:54:16.974Z,30.17
2022-09-15T06:56:45.842Z,28.38
2022-09-15T06:59:15.170Z,34.20
2022-09-15T07:01:45.038Z,30.02
2022-09-15T07:04:13.506Z,28.10
2022-09-15T07:06:42.042Z,27.92
2022-09-15T07:09:12.491Z,32.50
2022-09-15T07:11:40.999Z,27.83
2022-09-15T07:14:09.527Z,35.60
2022-09-15T07:16:38.014Z,29.77
2022-09-15T07:19:08.041Z,28.50
2022-09-15T07:21:37.291Z,31.13
2022-09-15T07:24:07.766Z,27.60
2022-09-15T07:26:36.444Z,31.45
2022-09-15T07:29:06.440Z,26.77
2022-09-15T07:31:36.482Z,31.80
2022-09-15T07:34:07.495Z,26.13
2022-09-15T07:36:36.093Z,25.67
2022-09-15T07:39:05.787Z,29.08
2022-09-15T07:41:34.694Z,26.65
2022-09-15T07:44:03.537Z,24.23
2022-09-15T07:46:33.473Z,27.08
2022-09-15T07:49:03.119Z,29.10
2022-09-15T07:51:33.331Z,26.02
2022-09-15T07:54:01.841Z,32.28
2022-09-15T07:56:30.506Z,27.20
2022-09-15T07:58:59.237Z,27.60
2022-09-15T08:01:27.784Z,29.77
2022-09-15T08:03:56.398Z,25.25
2022-09-15T08:06:27.224Z,28.45
2022-09-15T08:09:00.661Z,28.10
2022-09-15T08:11:30.133Z,28.52
2022-09-15T08:14:02.259Z,30.17
2022-09-15T08:16:30.918Z,30.63
2022-09-15T08:18:59.522Z,27.27
2022-09-15T08:21:29.090Z,27.92
2022-09-15T08:24:01.185Z,25.52
2022-09-15T08:26:31.035Z,27.45
2022-09-15T08:29:00.583Z,28.83
2022-09-15T08:31:29.231Z,27.98
2022-09-15T08:33:58.074Z,28.45
2022-09-15T08:36:28.324Z,31.70
2022-09-15T08:38:58.290Z,24.52
2022-09-15T08:41:30.733Z,28.38
2022-09-15T08:44:03.478Z,26.90
2022-09-15T08:46:37.504Z,27.67
2022-09-15T08:49:12.115Z,21.63
2022-09-15T08:51:46.109Z,23.90
2022-09-15T08:54:22.005Z,22.35
2022-09-15T08:56:51.323Z,24.85
2022-09-15T08:59:21.433Z,20.52
2022-09-15T09:02:01.791Z,23.83
2022-09-15T09:04:46.332Z,20.45
2022-09-15T09:07:29.508Z,21.30
2022-09-15T09:10:05.825Z,17.80
2022-09-15T09:12:51.421Z,15.52
2022-09-15T09:15:32.702Z,17.45
2022-09-15T09:18:16.860Z,17.30
2022-09-15T09:20:54.505Z,17.17
2022-09-15T09:23:26.025Z,16.50
2022-09-15T09:25:57.808Z,13.30
2022-09-15T09:28:31.701Z,14.50
2022-09-15T09:31:08.308Z,11.98
2022-09-15T09:33:47.617Z,10.63
2022-09-15T09:36:17.114Z,10.43
2022-09-15T09:38:47.796Z,12.27
2022-09-15T09:41:19.515Z,11.88
2022-09-15T09:43:50.013Z,9.00
2022-09-15T09:46:20.211Z,13.45
2022-09-15T09:48:54.131Z,11.43
2022-09-15T09:51:35.457Z,11.50
2022-09-15T09:54:24.916Z,11.02
2022-09-15T09:56:56.500Z,12.18
2022-09-15T09:59:39.501Z,11.60
2022-09-15T10:02:18.902Z,8.75
2022-09-15T10:04:49.073Z,8.60
2022-09-15T10:07:20.421Z,9.13
2022-09-15T10:09:54.472Z,9.10
2022-09-15T10:12:29.298Z,13.32
2022-09-15T10:15:00.541Z,11.85
2022-09-15T10:17:41.170Z,11.32
2022-09-15T10:20:28.573Z,8.75
2022-09-15T10:23:05.849Z,8.27
2022-09-15T10:25:57.505Z,7.95
2022-09-15T10:28:27.800Z,8.77
2022-09-15T10:31:01.890Z,7.47
2022-09-15T10:33:31.914Z,7.88
2022-09-15T10:36:06.793Z,6.93
2022-09-15T10:38:44.952Z,8.27
2022-09-15T10:41:22.373Z,6.72
2022-09-15T10:44:14.733Z,6.68
2022-09-15T10:46:50.686Z,5.63
2022-09-15T10:49:37.381Z,6.82
2022-09-15T10:52:14.914Z,7.60
2022-09-15T10:55:02.018Z,10.93
2022-09-15T10:57:53.063Z,5.95
2022-09-15T11:00:25.620Z,9.32
2022-09-15T11:03:13.304Z,5.47
2022-09-15T11:06:02.909Z,6.00
2022-09-15T11:08:48.790Z,7.20
2022-09-15T11:11:24.159Z,7.78
2022-09-15T11:14:07.271Z,6.70
2022-09-15T11:16:51.149Z,6.65
2022-09-15T11:19:33.721Z,5.80
2022-09-15T11:22:05.800Z,6.75
2022-09-15T11:24:42.111Z,4.13
2022-09-15T11:27:19.258Z,6.95
2022-09-15T11:30:02.648Z,6.65
2022-09-15T11:32:40.010Z,6.50
2022-09-15T11:35:37.664Z,6.60
2022-09-15T11:38:20.761Z,3.42
2022-09-15T11:40:53.729Z,4.70
2022-09-15T11:43:30.898Z,6.00
2022-09-15T11:46:02.836Z,6.07
2022-09-15T11:48:40.575Z,5.25
2022-09-15T11:51:10.593Z,3.95
2022-09-15T11:53:44.801Z,3.35
2022-09-15T11:56:21.789Z,3.13
2022-09-15T11:59:01.839Z,4.60
2022-09-15T12:01:35.924Z,4.03
2022-09-15T12:04:11.416Z,7.10
2022-09-15T12:06:46.675Z,3.38
2022-09-15T12:09:17.392Z,3.10
2022-09-15T12:11:47.809Z,4.80
2022-09-15T12:14:20.186Z,8.63
2022-09-15T12:16:49.108Z,5.07
2022-09-15T12:19:37.470Z,7.28
2022-09-15T12:22:16.093Z,5.25
2022-09-15T12:24:52.003Z,4.88
2022-09-15T12:27:22.192Z,3.47
2022-09-15T12:29:51.766Z,3.25
2022-09-15T12:32:26.445Z,5.30
2022-09-15T12:35:10.162Z,4.38
2022-09-15T12:37:44.041Z,7.18
2022-09-15T12:40:35.897Z,3.28
2022-09-15T12:43:18.218Z,6.00
2022-09-15T12:45:56.216Z,6.13
2022-09-15T12:48:28.199Z,3.40
2022-09-15T12:51:01.555Z,3.90
2022-09-15T12:53:32.966Z,4.57
2022-09-15T12:56:05.415Z,5.40
2022-09-15T12:58:37.707Z,4.78
2022-09-15T13:01:31.435Z,4.30
2022-09-15T13:04:49.066Z,3.33
2022-09-15T13:07:51.215Z,4.63
2022-09-15T13:10:42.077Z,3.63
2022-09-15T13:13:23.621Z,3.42
2022-09-15T13:15:54.267Z,5.22
2022-09-15T13:18:25.025Z,3.05
2022-09-15T13:21:00.333Z,3.28
2022-09-15T13:23:36.665Z,3.13
2022-09-15T13:26:12.149Z,4.93
2022-09-15T13:28:41.240Z,3.75
2022-09-15T13:31:21.805Z,5.03
2022-09-15T13:41:00.605Z,3.63
2022-09-15T13:43:50.402Z,6.03
2022-09-15T13:46:34.579Z,4.40
2022-09-15T13:49:37.920Z,3.78
2022-09-15T13:52:15.399Z,3.53
2022-09-15T13:55:17.120Z,4.00
2022-09-15T14:00:58.075Z,4.70
2022-09-15T14:03:36.949Z,3.35
2022-09-15T14:06:16.043Z,3.78
2022-09-15T14:08:47.878Z,2.55
2022-09-15T14:11:21.835Z,2.75
2022-09-15T14:13:52.553Z,3.55
2022-09-15T14:16:25.372Z,2.45
2022-09-15T14:18:55.402Z,5.00
2022-09-15T14:21:25.941Z,2.90
2022-09-15T14:23:56.172Z,3.25
2022-09-15T14:26:27.697Z,5.90
2022-09-15T14:29:00.024Z,4.60
2022-09-15T14:31:30.619Z,4.40
2022-09-15T14:33:59.706Z,7.40
2022-09-15T14:36:30.956Z,4.35
2022-09-15T14:39:20.279Z,6.57
2022-09-15T14:41:49.996Z,3.55
2022-09-15T14:47:18.660Z,3.03
2022-09-15T14:49:47.430Z,3.20
2022-09-15T14:52:24.100Z,2.45
2022-09-15T14:54:57.768Z,2.65
2022-09-15T14:57:31.052Z,5.20
2022-09-15T15:00:07.744Z,5.47
2022-09-15T15:02:49.680Z,3.38
2022-09-15T15:05:22.580Z,5.43
2022-09-15T15:07:52.113Z,2.65
2022-09-15T15:10:24.464Z,2.05
2022-09-15T15:12:56.805Z,2.35
2022-09-15T15:15:27.057Z,4.40
2022-09-15T15:17:55.746Z,4.55
2022-09-15T15:20:27.001Z,3.42
2022-09-15T15:23:13.024Z,5.15
2022-09-15T15:25:42.497Z,3.08
2022-09-15T15:28:29.716Z,4.20
2022-09-15T15:31:14.486Z,4.57
2022-09-15T15:33:48.558Z,4.13
2022-09-15T15:36:23.761Z,5.18
2022-09-15T15:38:54.506Z,4.70
2022-09-15T15:41:25.045Z,3.13
2022-09-15T15:43:58.625Z,3.80
2022-09-15T15:46:49.868Z,4.60
2022-09-15T15:49:19.202Z,2.90
2022-09-15T15:51:47.794Z,3.45
2022-09-15T15:54:16.321Z,2.95
2022-09-15T15:56:44.826Z,6.15
2022-09-15T15:59:14.469Z,3.72
2022-09-15T16:01:43.255Z,4.68
2022-09-15T16:04:13.195Z,2.90
2022-09-15T16:06:42.411Z,1.60
2022-09-15T16:09:11.658Z,3.45
2022-09-15T16:11:41.277Z,3.63
2022-09-15T16:14:12.502Z,2.38
2022-09-15T16:16:41.200Z,5.13
2022-09-15T16:19:09.917Z,2.58
2022-09-15T16:21:42.336Z,1.95
2022-09-15T16:24:14.732Z,2.50
2022-09-15T16:26:43.736Z,2.53
2022-09-15T16:29:12.665Z,2.03
2022-09-15T16:31:42.913Z,2.75
2022-09-15T16:34:17.561Z,3.03
2022-09-15T16:36:47.721Z,4.43
2022-09-15T16:39:16.204Z,3.45
2022-09-15T16:41:44.653Z,3.03
2022-09-15T16:44:19.012Z,3.30
2022-09-15T16:46:47.541Z,4.10
2022-09-15T16:49:16.176Z,2.70
2022-09-15T16:51:44.693Z,6.15
2022-09-15T16:54:16.734Z,5.13
2022-09-15T16:56:46.446Z,5.85
2022-09-15T16:59:15.134Z,5.53
2022-09-15T17:01:43.584Z,2.85
2022-09-15T17:04:16.717Z,2.05
2022-09-15T17:06:45.501Z,6.28
2022-09-15T17:09:15.318Z,3.63
2022-09-15T17:11:43.753Z,4.15
2022-09-15T17:14:15.464Z,3.85
2022-09-15T17:16:47.242Z,4.45
2022-09-15T17:19:15.880Z,2.88
2022-09-15T17:21:44.301Z,2.83
2022-09-15T17:24:12.746Z,5.22
2022-09-15T17:26:42.541Z,4.63
2022-09-15T17:29:11.093Z,2.15
2022-09-15T17:31:39.638Z,2.70
2022-09-15T17:34:13.890Z,2.95
2022-09-15T17:36:42.362Z,5.22
2022-09-15T17:39:10.826Z,2.28
2022-09-15T17:41:39.591Z,4.25
2022-09-15T17:44:12.492Z,3.38
2022-09-15T17:46:41.017Z,6.18
2022-09-15T17:49:09.656Z,4.20
2022-09-15T17:51:38.070Z,5.63
2022-09-15T17:54:07.452Z,7.40
2022-09-15T17:56:35.897Z,3.53
2022-09-15T17:59:04.497Z,4.30
2022-09-15T18:01:34.387Z,4.70
2022-09-15T18:04:03.497Z,3.97
2022-09-15T18:06:31.907Z,3.67
2022-09-15T18:09:00.344Z,5.05
2022-09-15T18:11:28.933Z,2.70
2022-09-15T18:13:58.410Z,3.70
2022-09-15T18:16:26.885Z,5.03
2022-09-15T18:18:56.713Z,3.72
2022-09-15T18:21:29.103Z,4.53
2022-09-15T18:23:57.561Z,2.47
2022-09-15T18:26:26.822Z,4.03
2022-09-15T18:28:56.879Z,2.10
2022-09-15T18:31:25.512Z,4.10
2022-09-15T18:33:54.148Z,3.00
2022-09-15T18:36:24.070Z,5.47
2022-09-15T18:38:52.650Z,2.47
2022-09-15T18:41:21.138Z,4.90
2022-09-15T18:43:49.887Z,3.90
2022-09-15T18:46:18.569Z,4.70
2022-09-15T18:48:47.182Z,4.70
2022-09-15T18:51:23.715Z,1.33
2022-09-15T18:53:59.278Z,5.75
2022-09-15T18:56:27.775Z,6.28
2022-09-15T18:58:56.623Z,3.80
2022-09-15T19:01:25.261Z,2.20
2022-09-15T19:03:54.060Z,3.65
2022-09-15T19:06:22.742Z,3.05
2022-09-15T19:08:51.189Z,3.97
2022-09-15T19:11:21.083Z,3.22
2022-09-15T19:13:49.577Z,6.07
2022-09-15T19:16:20.172Z,4.28
2022-09-15T19:18:51.807Z,2.75
2022-09-15T19:21:23.911Z,4.50
2022-09-15T19:23:58.666Z,2.00
2022-09-15T19:26:29.472Z,4.20
2022-09-15T19:28:58.905Z,6.57
2022-09-15T19:31:28.587Z,4.18
2022-09-15T19:33:57.144Z,3.00
2022-09-15T19:36:29.424Z,3.30
2022-09-15T19:38:58.429Z,2.83
2022-09-15T19:41:28.303Z,3.83
2022-09-15T19:43:56.816Z,4.85
2022-09-15T19:46:26.253Z,3.38
2022-09-15T19:48:55.740Z,4.22
2022-09-15T19:51:24.729Z,2.92
2022-09-15T19:53:55.397Z,4.72
2022-09-15T19:56:26.684Z,5.72
2022-09-15T19:58:57.831Z,2.88
2022-09-15T20:01:28.133Z,4.35
2022-09-15T20:03:57.749Z,8.35
2022-09-15T20:06:31.622Z,5.88
2022-09-15T20:09:01.206Z,4.05
2022-09-15T20:11:30.867Z,2.35
2022-09-15T20:14:01.000Z,2.67
2022-09-15T20:16:30.188Z,4.00
2022-09-15T20:18:58.728Z,4.13
2022-09-15T20:21:48.790Z,4.43
2022-09-15T20:24:17.886Z,2.92
2022-09-15T20:26:46.434Z,3.28
2022-09-15T20:29:16.263Z,3.35
2022-09-15T20:31:44.825Z,4.70
2022-09-15T20:34:13.353Z,3.92
2022-09-15T20:36:41.988Z,3.17
2022-09-15T20:39:13.338Z,1.77
2022-09-15T20:41:44.879Z,3.05
2022-09-15T20:44:14.093Z,5.15
2022-09-15T20:46:44.233Z,2.10
2022-09-15T20:49:13.181Z,2.85
2022-09-15T20:51:42.225Z,4.15
2022-09-15T20:54:11.833Z,3.53
2022-09-15T20:56:40.266Z,2.97
2022-09-15T20:59:10.567Z,2.03
2022-09-15T21:01:40.191Z,4.75
2022-09-15T21:04:11.208Z,3.17
2022-09-15T21:06:40.429Z,2.28
2022-09-15T21:09:09.382Z,2.42
2022-09-15T21:11:39.149Z,6.18
2022-09-15T21:14:07.709Z,4.30
2022-09-15T21:16:36.264Z,2.17
2022-09-15T21:19:05.123Z,5.38
2022-09-15T21:21:35.806Z,3.33
2022-09-15T21:24:06.193Z,5.20
2022-09-15T21:26:56.610Z,3.92
2022-09-15T21:29:25.537Z,3.33
2022-09-15T21:31:55.618Z,2.22
2022-09-15T21:34:24.855Z,4.60
2022-09-15T21:36:54.790Z,2.60
2022-09-15T21:39:23.246Z,3.42
2022-09-15T21:41:51.690Z,5.13
2022-09-15T21:44:20.191Z,6.82
2022-09-15T21:46:48.644Z,5.13
2022-09-15T21:49:18.289Z,3.85
2022-09-15T21:51:47.394Z,3.22
2022-09-15T21:54:17.836Z,3.15
2022-09-15T21:56:46.353Z,2.05
2022-09-15T21:59:15.984Z,7.38
2022-09-15T22:01:44.839Z,3.20
2022-09-15T22:04:13.346Z,4.85
2022-09-15T22:06:42.580Z,4.20
2022-09-15T22:09:14.818Z,3.13
2022-09-15T22:11:45.333Z,1.80
2022-09-15T22:14:14.316Z,3.22
2022-09-15T22:16:43.721Z,2.80
2022-09-15T22:19:13.227Z,3.33
2022-09-15T22:21:42.927Z,2.70
2022-09-15T22:24:13.016Z,3.35
2022-09-15T22:26:42.697Z,5.95
2022-09-15T22:29:12.993Z,3.55
2022-09-15T22:31:42.054Z,2.58
2022-09-15T22:34:10.732Z,4.25
2022-09-15T22:36:39.454Z,3.47
2022-09-15T22:39:08.237Z,6.40
2022-09-15T22:41:38.062Z,5.93
2022-09-15T22:44:07.741Z,5.22
2022-09-15T22:46:37.543Z,2.70
2022-09-15T22:49:06.031Z,2.92
2022-09-15T22:51:34.469Z,5.50
2022-09-15T22:54:03.410Z,3.75
2022-09-15T22:56:31.907Z,1.70
2022-09-15T22:59:00.733Z,3.42
2022-09-15T23:01:31.055Z,5.32
2022-09-15T23:04:02.642Z,4.53
2022-09-15T23:06:34.866Z,4.63
2022-09-15T23:09:08.444Z,3.08
2022-09-15T23:11:39.651Z,6.13
2022-09-15T23:14:10.162Z,4.55
2022-09-15T23:16:38.671Z,7.97
2022-09-15T23:19:08.693Z,2.45
2022-09-15T23:21:37.147Z,4.15
2022-09-15T23:24:06.158Z,3.45
2022-09-15T23:26:34.675Z,2.88
2022-09-15T23:29:03.322Z,3.97
2022-09-15T23:31:31.807Z,3.78
2022-09-15T23:34:00.316Z,1.67
2022-09-15T23:36:30.189Z,2.42
2022-09-15T23:38:58.661Z,2.17
2022-09-15T23:41:27.082Z,3.65
2022-09-15T23:43:56.855Z,7.43
2022-09-15T23:46:25.369Z,3.80
2022-09-15T23:48:53.861Z,3.38
2022-09-15T23:51:22.314Z,4.63
2022-09-15T23:53:52.307Z,3.70
2022-09-15T23:56:20.852Z,4.78
2022-09-15T23:58:49.351Z,5.25
